Terminal Aerodrome Forecast
Issued by NWS Goodland, KS

Home | Current Version | Previous Version | Text Only | Print | Product List | Glossary On
Versions: 1 2 3 4 5 6 7 8 9 10 11 12 13 14 15 16
000
FTUS43 KGLD 251700
TAFGLD
TAF
KGLD 251720Z 2518/2618 34013G20KT P6SM SCT150
     FM252000 03009KT P6SM BKN150
     FM260000 VRB05KT P6SM FEW070 BKN150
     FM261600 35011KT P6SM FEW200=

USA.gov is the U.S. government's official web portal to all federal, state and local government web resources and services.